Aragarcas, Brazil
Current Conditions -  °F | °C
As of 11:00 AM on Saturday 20 Dec 2014 (Local Time) from SBBW Reporting Station
Light Rain Light Rain  
Wind Chill: 77°   Ceiling: 400
Heat Index: 78°   Visibility: 6mi
Dew Point: 73°   Wind: 8mph
Humidity: 89%   Direction: 60°ENE
Pressure: 29.91"   Gusts: NA
Location:  15.92°S, 52.25°W
Report Text: SBBW 201300Z 06007KT 9999 -RA BKN004 BKN010 OVC070 25/23 Q1013
Loading
Personal Weather Stations






























Interactive Weather Map New forecast layout! Learn more

10-Day Weather Forecast

Advertisements
Track Severe Weather on mobile